TimeMST,TemperatureF,Dew PointF,Humidity,Sea Level PressureIn,VisibilityMPH,Wind Direction,Wind SpeedMPH,Gust SpeedMPH,PrecipitationIn,Events,Conditions,WindDirDegrees,DateUTC
12:53 AM,19.9,17.1,89,29.70,10.0,SSE,5.8,-,N/A,,Clear,150,2012-12-17 07:53:00
1:53 AM,21.0,16.0,81,29.68,10.0,SSE,9.2,-,N/A,,Clear,150,2012-12-17 08:53:00
2:53 AM,19.0,15.1,85,29.66,10.0,SSE,5.8,-,N/A,,Clear,150,2012-12-17 09:53:00
3:53 AM,19.0,15.1,85,29.62,10.0,SE,8.1,-,N/A,,Clear,140,2012-12-17 10:53:00
4:53 AM,21.0,16.0,81,29.61,10.0,SSE,9.2,-,N/A,,Clear,150,2012-12-17 11:53:00
5:53 AM,21.0,15.1,78,29.59,10.0,SSE,9.2,-,N/A,,Clear,150,2012-12-17 12:53:00
6:53 AM,21.0,15.1,78,29.57,10.0,SSE,9.2,-,N/A,,Clear,160,2012-12-17 13:53:00
7:53 AM,21.9,15.1,75,29.54,10.0,SSE,10.4,-,N/A,,Overcast,150,2012-12-17 14:53:00
8:53 AM,23.0,16.0,74,29.52,10.0,ESE,6.9,-,N/A,,Overcast,110,2012-12-17 15:53:00
9:53 AM,25.0,18.0,75,29.52,10.0,SSE,5.8,-,N/A,,Overcast,150,2012-12-17 16:53:00
10:53 AM,28.9,19.0,67,29.50,10.0,SSE,6.9,-,N/A,,Overcast,150,2012-12-17 17:53:00
11:53 AM,30.9,19.0,61,29.45,10.0,SE,9.2,-,N/A,,Overcast,140,2012-12-17 18:53:00
12:53 PM,33.1,19.0,56,29.42,10.0,SSE,12.7,-,N/A,,Overcast,150,2012-12-17 19:53:00
1:53 PM,34.0,21.0,59,29.42,10.0,SSE,11.5,-,N/A,,Overcast,150,2012-12-17 20:53:00
2:53 PM,34.0,21.9,61,29.41,10.0,SSE,5.8,-,N/A,,Overcast,150,2012-12-17 21:53:00
5:53 PM,32.0,23.0,69,29.42,10.0,SSE,6.9,-,N/A,,Overcast,160,2012-12-18 00:53:00
6:53 PM,30.0,23.0,75,29.43,10.0,SE,5.8,-,N/A,,Mostly Cloudy,140,2012-12-18 01:53:00
7:53 PM,28.9,21.9,75,29.44,10.0,South,3.5,-,N/A,,Mostly Cloudy,170,2012-12-18 02:53:00
8:53 PM,30.9,23.0,72,29.44,10.0,SW,5.8,-,N/A,,Overcast,230,2012-12-18 03:53:00
9:53 PM,33.1,25.0,72,29.45,10.0,WSW,8.1,-,N/A,,Scattered Clouds,250,2012-12-18 04:53:00
10:53 PM,34.0,25.0,70,29.47,10.0,West,13.8,-,N/A,,Scattered Clouds,270,2012-12-18 05:53:00
11:53 PM,30.9,24.1,76,29.49,10.0,West,10.4,-,N/A,,Partly Cloudy,270,2012-12-18 06:53:00